Townville, Pennsylvania
Current Conditions -  °F | °C
As of 1:53 AM on Saturday 25 Oct 2014 (Local Time) from KGKJ Reporting Station
Broken Clouds Broken Clouds  
Wind Chill: 44°   Ceiling: 4700
Heat Index: 46°   Visibility: 10mi
Dew Point: 41°   Wind: 5mph
Humidity: 83%   Direction: 190°S
Pressure: 29.96"   Gusts: NA
Location:  41.68°N, 79.88°W
Report Text: KGKJ 250553Z AUTO 19004KT 10SM BKN047 08/05 A2996 RMK AO2 SLP148 T00780050 10100 20078 58008 TSNO
Loading
Personal Weather Stations






























Interactive Weather Map
Tropical Storm Tracking
New forecast layout! Learn more

10-Day Weather Forecast

Advertisements
Track Severe Weather on mobile